Time;durP1;ratioP1;P1;durP2;ratioP2;P2;SDS_P1;SDS_P2;PMS_P1;PMS_P2;Temp;Humidity;BMP_temperature;BMP_pressure;BME280_temperature;BME280_humidity;BME280_pressure;Samples;Min_cycle;Max_cycle;Signal;HPM_P1;HPM_P2
2022/08/18 00:02:28;;;;;;;4.95;3.65;;;23.70;85.70;;;;;;5047805;28;20163;-61
2022/08/18 00:04:56;;;;;;;4.70;3.90;;;23.70;85.60;;;;;;5050020;28;20043;-61
2022/08/18 00:07:32;;;;;;;4.55;4.07;;;23.60;85.60;;;;;;5051250;28;20025;-61
2022/08/18 00:09:59;;;;;;;5.75;4.80;;;23.70;85.70;;;;;;5027997;28;20028;-62
2022/08/18 00:12:33;;;;;;;4.82;4.25;;;23.60;85.90;;;;;;5051350;28;20025;-62
2022/08/18 00:15:04;;;;;;;5.28;4.25;;;23.60;86.20;;;;;;5051457;28;20083;-61
2022/08/18 00:17:31;;;;;;;5.13;4.53;;;23.60;86.20;;;;;;5051058;28;20052;-61
2022/08/18 00:19:57;;;;;;;5.43;4.40;;;23.60;86.40;;;;;;5049704;28;20651;-62
2022/08/18 00:22:23;;;;;;;4.93;4.43;;;23.60;86.70;;;;;;5051836;28;20021;-61
2022/08/18 00:24:52;;;;;;;5.13;4.30;;;23.60;86.60;;;;;;5052541;28;20491;-61
2022/08/18 00:27:27;;;;;;;5.43;4.50;;;23.50;86.70;;;;;;5049355;28;20020;-62
2022/08/18 00:29:54;;;;;;;6.22;4.40;;;23.50;86.70;;;;;;5050256;28;20098;-62
2022/08/18 00:32:35;;;;;;;5.97;4.93;;;23.50;87.00;;;;;;5050633;28;20059;-61
2022/08/18 00:35:07;;;;;;;5.82;4.32;;;23.50;87.00;;;;;;5049719;28;20087;-61
2022/08/18 00:37:33;;;;;;;4.88;3.97;;;23.40;87.00;;;;;;5048603;28;20055;-62
2022/08/18 00:39:58;;;;;;;6.97;4.72;;;23.40;87.20;;;;;;5051222;28;20119;-61
2022/08/18 00:42:28;;;;;;;5.38;4.70;;;23.40;87.30;;;;;;5050699;28;20033;-61
2022/08/18 00:44:55;;;;;;;5.07;4.07;;;23.30;87.30;;;;;;5050053;28;20017;-62
2022/08/18 00:47:21;;;;;;;5.35;4.00;;;23.30;87.60;;;;;;5031462;28;20025;-62
2022/08/18 00:49:50;;;;;;;4.63;3.67;;;23.20;87.60;;;;;;5050279;28;20029;-59
2022/08/18 00:52:17;;;;;;;4.82;4.03;;;23.20;87.70;;;;;;5049582;28;20078;-61
2022/08/18 00:54:44;;;;;;;5.50;4.43;;;23.20;87.70;;;;;;5045572;28;20032;-60
2022/08/18 00:57:12;;;;;;;4.15;3.75;;;23.20;87.80;;;;;;5049342;28;20141;-60
2022/08/18 00:59:50;;;;;;;5.50;4.55;;;23.20;87.90;;;;;;5050055;28;20384;-61
2022/08/18 01:02:26;;;;;;;6.00;4.97;;;23.20;88.00;;;;;;5049267;28;20057;-60
2022/08/18 01:04:58;;;;;;;6.05;4.45;;;23.20;88.00;;;;;;5049617;28;20380;-60
2022/08/18 01:07:39;;;;;;;6.32;5.05;;;23.10;88.20;;;;;;5050537;28;20074;-60
2022/08/18 01:10:05;;;;;;;5.60;4.57;;;23.10;88.20;;;;;;5048847;28;20099;-61
2022/08/18 01:12:32;;;;;;;4.72;4.20;;;23.10;88.40;;;;;;5050714;28;20037;-60
2022/08/18 01:14:58;;;;;;;5.13;4.63;;;23.10;88.60;;;;;;5049180;28;20028;-61
2022/08/18 01:23:18;;;;;;;4.30;3.90;;;23.10;88.70;;;;;;5047432;28;20111;-61
2022/08/18 01:25:59;;;;;;;6.78;4.00;;;23.00;88.90;;;;;;5049105;28;20484;-60
2022/08/18 01:28:27;;;;;;;5.63;3.92;;;23.00;89.00;;;;;;5048441;28;20025;-61
2022/08/18 01:30:56;;;;;;;5.68;4.40;;;23.00;89.00;;;;;;5047717;28;20033;-61
2022/08/18 01:33:25;;;;;;;4.82;3.88;;;23.00;89.00;;;;;;5049484;28;20111;-60
2022/08/18 01:35:52;;;;;;;4.57;4.00;;;23.00;89.10;;;;;;5048927;28;20036;-60
2022/08/18 01:38:21;;;;;;;5.75;4.20;;;23.00;89.90;;;;;;5049341;28;20074;-61
2022/08/18 01:40:47;;;;;;;5.15;4.00;;;23.00;89.10;;;;;;5048830;28;20021;-62
2022/08/18 01:43:14;;;;;;;4.43;4.03;;;23.00;89.20;;;;;;5048770;28;20028;-61
2022/08/18 01:45:41;;;;;;;5.10;4.57;;;23.00;89.40;;;;;;5049716;28;20104;-61
2022/08/18 01:48:07;;;;;;;6.45;4.47;;;23.00;89.40;;;;;;5049434;28;20033;-61
2022/08/18 01:50:35;;;;;;;7.38;4.82;;;23.00;89.40;;;;;;5049643;28;20031;-61
2022/08/18 01:53:03;;;;;;;6.70;4.88;;;23.00;89.20;;;;;;5049716;28;20086;-61
2022/08/18 01:55:28;;;;;;;5.13;4.63;;;23.00;89.40;;;;;;5048962;28;20071;-62
2022/08/18 01:57:54;;;;;;;5.38;3.85;;;23.00;89.50;;;;;;5048003;28;20037;-61
2022/08/18 02:00:20;;;;;;;5.82;4.57;;;22.90;89.40;;;;;;5048140;28;20024;-62
2022/08/18 02:02:47;;;;;;;5.47;4.72;;;23.00;89.60;;;;;;5045207;28;20052;-61
2022/08/18 02:05:20;;;;;;;6.60;5.32;;;22.90;89.70;;;;;;5049327;28;20108;-62
2022/08/18 02:07:46;;;;;;;5.30;4.35;;;22.90;89.80;;;;;;5049748;28;20365;-62
2022/08/18 02:10:12;;;;;;;4.80;4.30;;;22.90;89.80;;;;;;5049567;28;20071;-61
2022/08/18 02:12:39;;;;;;;5.25;4.55;;;22.90;89.90;;;;;;5049570;28;20090;-61
2022/08/18 02:15:06;;;;;;;5.45;4.45;;;22.90;90.00;;;;;;5049610;28;20037;-62
2022/08/18 02:17:43;;;;;;;4.97;4.32;;;22.90;90.00;;;;;;5049586;28;20393;-61
2022/08/18 02:20:12;;;;;;;4.97;4.00;;;22.90;90.00;;;;;;5049677;28;20025;-62
2022/08/18 02:22:39;;;;;;;5.63;4.60;;;22.80;90.00;;;;;;5050917;28;20025;-62
2022/08/18 02:25:05;;;;;;;5.75;4.80;;;22.90;90.10;;;;;;5049598;28;20029;-61
2022/08/18 02:27:31;;;;;;;6.18;4.90;;;22.80;90.10;;;;;;5048745;28;20037;-62
2022/08/18 02:29:59;;;;;;;5.80;4.88;;;22.80;90.10;;;;;;5048136;28;20056;-61
2022/08/18 02:32:25;;;;;;;4.97;4.30;;;22.80;90.20;;;;;;5050735;28;20388;-60
2022/08/18 02:34:51;;;;;;;6.35;4.80;;;22.80;90.20;;;;;;5052766;28;20056;-60
2022/08/18 02:37:16;;;;;;;5.03;4.05;;;22.80;90.30;;;;;;5052633;28;20403;-62
2022/08/18 02:39:42;;;;;;;5.15;4.10;;;22.80;90.40;;;;;;5052846;28;20025;-62
2022/08/18 02:42:08;;;;;;;5.28;4.78;;;22.80;90.40;;;;;;5052558;28;20024;-62
2022/08/18 02:44:34;;;;;;;6.60;4.80;;;22.80;90.50;;;;;;5053568;28;20024;-61
2022/08/18 02:47:00;;;;;;;5.35;4.20;;;22.80;90.50;;;;;;5052484;28;20460;-60
2022/08/18 02:49:26;;;;;;;5.68;4.80;;;22.80;90.50;;;;;;5050957;28;20035;-62
2022/08/18 02:51:53;;;;;;;5.40;4.50;;;22.80;90.60;;;;;;5052354;28;20436;-62
2022/08/18 02:54:22;;;;;;;5.32;4.50;;;22.80;90.70;;;;;;5050624;28;20052;-62
2022/08/18 02:56:50;;;;;;;7.07;5.15;;;22.80;90.70;;;;;;5052480;28;20024;-62
2022/08/18 02:59:23;;;;;;;6.00;5.15;;;22.80;90.80;;;;;;5049407;28;20029;-62
2022/08/18 03:01:51;;;;;;;5.60;4.65;;;22.80;90.80;;;;;;5051804;28;20017;-62
2022/08/18 03:04:26;;;;;;;5.45;4.78;;;22.80;90.90;;;;;;5051257;28;20024;-61
2022/08/18 03:06:53;;;;;;;5.35;4.35;;;22.80;91.00;;;;;;5049135;28;20391;-62
2022/08/18 03:09:19;;;;;;;5.55;4.82;;;22.80;91.10;;;;;;5053152;28;20107;-61
2022/08/18 03:11:45;;;;;;;5.40;4.65;;;22.80;91.10;;;;;;5053645;28;20059;-61
2022/08/18 03:14:12;;;;;;;5.00;4.32;;;22.80;91.00;;;;;;5051259;28;20024;-61
2022/08/18 03:16:43;;;;;;;6.03;4.40;;;22.80;90.90;;;;;;5052375;28;20374;-61
2022/08/18 03:19:09;;;;;;;4.22;3.75;;;22.80;90.80;;;;;;5052702;28;20469;-61
2022/08/18 03:21:36;;;;;;;5.30;4.72;;;22.90;90.70;;;;;;5046096;28;20030;-62
2022/08/18 03:24:03;;;;;;;5.10;4.15;;;22.90;90.70;;;;;;5053077;28;20580;-62
2022/08/18 03:26:31;;;;;;;5.20;4.43;;;22.90;90.60;;;;;;5052862;28;20029;-62
2022/08/18 03:28:58;;;;;;;4.22;3.80;;;22.90;90.50;;;;;;5051800;28;20159;-62
2022/08/18 03:31:26;;;;;;;4.43;3.47;;;23.00;90.30;;;;;;5051847;28;20516;-61
2022/08/18 03:33:53;;;;;;;3.92;3.50;;;23.10;90.20;;;;;;5052862;28;20124;-61
2022/08/18 03:36:23;;;;;;;4.32;3.78;;;23.10;90.10;;;;;;5051493;28;20033;-61
2022/08/18 03:38:50;;;;;;;4.18;3.70;;;23.20;90.30;;;;;;5050963;28;20022;-62
2022/08/18 03:41:21;;;;;;;4.40;4.00;;;23.20;90.10;;;;;;5050808;28;20025;-62
2022/08/18 03:43:47;;;;;;;;;;;23.30;89.60;;;;;;5052200;28;20029;-61
2022/08/18 03:46:14;;;;;;;4.32;3.58;;;23.30;89.00;;;;;;5051852;28;20443;-62
2022/08/18 03:48:42;;;;;;;4.75;3.78;;;23.40;89.20;;;;;;5052542;28;20052;-62
2022/08/18 03:51:16;;;;;;;4.82;3.97;;;23.40;89.00;;;;;;5049532;28;20033;-62
2022/08/18 03:53:43;;;;;;;5.35;4.45;;;23.50;88.60;;;;;;5050848;28;20090;-61
2022/08/18 03:56:14;;;;;;;4.32;3.53;;;23.50;88.30;;;;;;5048986;28;20040;-62
2022/08/18 03:58:44;;;;;;;5.85;5.03;;;23.60;88.00;;;;;;5049823;28;20591;-61
2022/08/18 04:01:16;;;;;;;6.28;4.18;;;23.70;87.80;;;;;;5050720;28;20028;-62
2022/08/18 04:03:43;;;;;;;4.93;3.85;;;23.70;87.60;;;;;;5049718;28;20121;-61
2022/08/18 04:06:35;;;;;;;4.85;3.70;;;23.80;87.50;;;;;;5051682;28;20496;-61
2022/08/18 04:09:03;;;;;;;5.03;4.10;;;23.90;87.20;;;;;;5050350;28;20021;-62
2022/08/18 04:11:32;;;;;;;4.68;3.70;;;24.00;87.10;;;;;;5047695;28;20064;-62
2022/08/18 04:13:57;;;;;;;6.80;4.50;;;24.00;86.80;;;;;;5050816;28;20477;-62
2022/08/18 04:16:28;;;;;;;5.32;4.07;;;24.20;86.40;;;;;;5051661;28;20029;-61
2022/08/18 04:19:01;;;;;;;4.45;3.90;;;24.20;85.90;;;;;;5049154;28;20031;-61
2022/08/18 04:21:30;;;;;;;4.90;3.80;;;24.30;85.60;;;;;;5050436;28;20488;-61
2022/08/18 04:23:58;;;;;;;4.65;3.97;;;24.30;85.40;;;;;;5052445;28;20025;-62
2022/08/18 04:26:24;;;;;;;5.07;3.55;;;24.40;85.10;;;;;;5052284;28;20024;-62
2022/08/18 04:28:50;;;;;;;4.72;4.15;;;24.50;84.70;;;;;;5050591;28;20523;-62
2022/08/18 04:31:17;;;;;;;4.70;3.63;;;24.50;84.10;;;;;;5048211;28;20096;-61
2022/08/18 04:33:42;;;;;;;4.53;3.85;;;24.60;83.70;;;;;;5047533;28;20131;-61
2022/08/18 04:36:13;;;;;;;3.88;3.50;;;24.60;83.30;;;;;;5049560;28;20112;-61
2022/08/18 04:38:43;;;;;;;4.68;3.53;;;24.60;82.90;;;;;;5049382;28;20119;-62
2022/08/18 04:41:11;;;;;;;4.50;3.90;;;24.70;82.70;;;;;;5050502;28;20033;-63
2022/08/18 04:43:38;;;;;;;4.38;3.90;;;24.70;82.50;;;;;;5050505;28;20036;-61
2022/08/18 04:46:05;;;;;;;4.57;3.88;;;24.90;82.50;;;;;;5048880;28;20362;-61
2022/08/18 04:48:34;;;;;;;4.85;3.30;;;25.00;82.10;;;;;;5048856;28;20083;-62
2022/08/18 04:51:11;;;;;;;5.18;4.03;;;25.20;81.30;;;;;;5048432;28;20033;-62
2022/08/18 04:53:44;;;;;;;4.85;3.60;;;25.30;80.80;;;;;;5046120;28;20514;-61
2022/08/18 04:56:24;;;;;;;4.57;3.55;;;25.30;80.60;;;;;;5047021;28;20028;-61
2022/08/18 04:58:54;;;;;;;3.38;3.05;;;25.30;80.20;;;;;;5044627;28;20055;-61
2022/08/18 05:01:23;;;;;;;5.00;3.55;;;25.30;80.00;;;;;;5042933;28;20554;-61
2022/08/18 05:03:50;;;;;;;4.15;3.55;;;25.30;79.80;;;;;;5022693;28;20021;-60
2022/08/18 05:06:17;;;;;;;4.68;3.55;;;25.40;79.70;;;;;;5043904;28;20025;-62
2022/08/18 05:08:43;;;;;;;3.53;2.92;;;25.40;79.50;;;;;;5043270;28;20028;-62
2022/08/18 05:11:09;;;;;;;4.25;3.13;;;25.50;79.30;;;;;;5041660;28;20021;-62
2022/08/18 05:13:35;;;;;;;4.00;3.40;;;25.60;78.90;;;;;;5043403;28;20037;-61
2022/08/18 05:16:02;;;;;;;3.92;3.47;;;25.70;78.60;;;;;;5040369;28;20049;-61
2022/08/18 05:18:30;;;;;;;3.97;3.40;;;25.80;78.50;;;;;;5053075;28;20052;-61
2022/08/18 05:20:56;;;;;;;3.50;3.20;;;25.90;78.10;;;;;;5046769;28;20377;-61
2022/08/18 05:23:22;;;;;;;3.80;2.95;;;25.90;77.90;;;;;;5052725;28;20107;-62
2022/08/18 05:25:48;;;;;;;2.97;2.60;;;26.00;77.70;;;;;;5050554;28;20488;-62
2022/08/18 05:28:15;;;;;;;3.92;3.10;;;26.00;77.40;;;;;;5048163;28;20108;-62
2022/08/18 05:30:41;;;;;;;3.20;2.90;;;26.00;77.30;;;;;;5048438;28;20025;-61
2022/08/18 05:33:11;;;;;;;4.63;3.05;;;26.10;77.30;;;;;;5049774;28;20064;-62
2022/08/18 05:35:45;;;;;;;3.58;3.10;;;26.20;77.00;;;;;;5048869;28;20106;-61
2022/08/18 05:38:19;;;;;;;3.38;2.92;;;26.50;76.30;;;;;;5034503;28;20028;-61
2022/08/18 05:41:02;;;;;;;3.10;2.80;;;26.80;75.60;;;;;;5044575;28;20105;-61
2022/08/18 05:43:28;;;;;;;3.13;2.83;;;26.90;75.00;;;;;;5047590;28;20022;-62
2022/08/18 05:45:54;;;;;;;3.70;3.20;;;26.90;74.60;;;;;;5033146;28;20384;-61
2022/08/18 05:48:19;;;;;;;3.50;3.20;;;26.90;74.40;;;;;;5035540;28;20137;-61
2022/08/18 05:50:45;;;;;;;3.15;2.85;;;26.80;74.50;;;;;;5039263;28;20028;-61
2022/08/18 05:53:17;;;;;;;3.70;3.10;;;26.80;74.50;;;;;;5026835;28;20083;-61
2022/08/18 05:58:47;;;;;;;3.33;2.88;;;26.60;74.60;;;;;;5040594;28;20629;-61
2022/08/18 06:01:21;;;;;;;2.80;2.42;;;26.50;74.50;;;;;;5035989;28;20515;-61
2022/08/18 06:04:08;;;;;;;3.47;2.90;;;26.50;74.60;;;;;;5031018;28;20017;-61
2022/08/18 06:06:36;;;;;;;2.80;2.60;;;26.50;74.50;;;;;;5040952;28;20029;-61
2022/08/18 06:09:24;;;;;;;3.15;2.85;;;26.40;75.20;;;;;;5040535;28;20048;-61
2022/08/18 06:11:55;;;;;;;2.90;2.60;;;26.40;74.30;;;;;;4999797;28;20111;-61
2022/08/18 06:14:21;;;;;;;3.15;2.85;;;26.40;74.60;;;;;;5038578;28;20112;-62
2022/08/18 06:17:08;;;;;;;3.63;3.05;;;26.40;74.60;;;;;;5041673;28;20043;-61
2022/08/18 06:20:02;;;;;;;3.40;3.10;;;26.30;74.50;;;;;;5033327;28;20051;-60
2022/08/18 06:22:47;;;;;;;4.78;3.00;;;26.30;74.30;;;;;;5032121;28;20025;-62
2022/08/18 06:25:41;;;;;;;3.38;3.00;;;26.30;74.60;;;;;;5033482;28;20421;-61
2022/08/18 06:28:12;;;;;;;3.33;3.03;;;26.30;74.30;;;;;;5029612;28;21778;-62
2022/08/18 06:30:41;;;;;;;4.05;3.35;;;26.30;74.60;;;;;;5038153;28;20053;-63
2022/08/18 06:33:31;;;;;;;3.45;2.88;;;26.30;74.50;;;;;;5033165;28;20422;-62
2022/08/18 06:36:42;;;;;;;3.95;3.17;;;26.30;74.30;;;;;;5036550;28;20461;-62
2022/08/18 06:39:20;;;;;;;3.97;3.10;;;26.30;74.30;;;;;;5008936;28;20492;-64
2022/08/18 06:41:48;;;;;;;4.22;3.17;;;26.30;74.20;;;;;;5040256;28;20036;-63
2022/08/18 06:44:35;;;;;;;3.20;2.75;;;26.30;74.30;;;;;;5034944;28;20037;-61
2022/08/18 06:47:16;;;;;;;3.53;2.85;;;26.30;74.20;;;;;;5031346;28;20032;-65
2022/08/18 06:49:45;;;;;;;3.17;2.80;;;26.30;74.00;;;;;;5034607;28;20043;-62
2022/08/18 06:52:30;;;;;;;3.05;2.50;;;26.30;73.90;;;;;;5036657;28;20041;-66
2022/08/18 06:55:10;;;;;;;3.33;2.53;;;26.30;73.90;;;;;;5025913;28;20029;-63
2022/08/18 06:57:53;;;;;;;2.88;2.60;;;26.30;73.90;;;;;;5032883;28;20041;-64
2022/08/18 07:00:25;;;;;;;3.78;3.10;;;26.30;73.60;;;;;;5022142;28;20140;-61
2022/08/18 07:03:14;;;;;;;3.42;2.97;;;26.30;73.50;;;;;;5022528;28;20124;-62
2022/08/18 07:06:05;;;;;;;3.22;2.83;;;26.30;73.30;;;;;;5032620;28;20025;-61
2022/08/18 07:08:34;;;;;;;2.95;2.72;;;26.30;73.20;;;;;;5024931;28;20029;-63
2022/08/18 07:11:20;;;;;;;3.38;2.85;;;26.30;73.30;;;;;;5028283;28;20086;-61
2022/08/18 07:13:54;;;;;;;3.75;3.10;;;26.30;73.20;;;;;;5026805;28;20059;-61
2022/08/18 07:16:26;;;;;;;3.17;2.80;;;26.30;73.30;;;;;;5021313;28;20037;-63
2022/08/18 07:18:52;;;;;;;3.47;2.95;;;26.30;73.30;;;;;;5027649;28;20029;-64
2022/08/18 07:21:32;;;;;;;3.63;3.05;;;26.30;73.20;;;;;;5014913;28;20114;-63
2022/08/18 07:24:17;;;;;;;2.88;2.60;;;26.40;73.10;;;;;;5036171;28;20478;-62
2022/08/18 07:27:03;;;;;;;3.40;2.60;;;26.30;73.30;;;;;;5033725;28;20072;-62
2022/08/18 07:29:32;;;;;;;3.53;3.08;;;26.30;73.00;;;;;;5035252;28;20531;-63
2022/08/18 07:32:03;;;;;;;3.90;3.00;;;26.30;73.00;;;;;;5029427;28;20429;-63
2022/08/18 07:34:35;;;;;;;4.65;3.40;;;26.30;73.00;;;;;;5041238;28;20542;-63
2022/08/18 07:37:11;;;;;;;3.72;2.78;;;26.30;72.90;;;;;;5033209;28;20102;-62
2022/08/18 07:39:49;;;;;;;4.00;3.10;;;26.30;73.00;;;;;;5022276;28;20040;-64
2022/08/18 07:42:40;;;;;;;3.05;2.80;;;26.30;72.90;;;;;;5033037;28;20059;-63
2022/08/18 07:45:16;;;;;;;4.63;3.50;;;26.30;73.10;;;;;;5033112;28;20094;-62
2022/08/18 07:48:03;;;;;;;3.78;3.25;;;26.30;73.10;;;;;;5032481;28;20033;-61
2022/08/18 07:50:35;;;;;;;5.13;3.42;;;26.30;73.00;;;;;;5031871;28;20222;-62
2022/08/18 07:53:09;;;;;;;5.07;3.50;;;26.30;73.10;;;;;;5040167;28;20060;-62
2022/08/18 07:55:35;;;;;;;4.10;3.45;;;26.30;73.20;;;;;;5033389;28;20079;-64
2022/08/18 07:58:23;;;;;;;4.70;3.45;;;26.30;73.00;;;;;;5030065;28;20033;-60
2022/08/18 08:01:16;;;;;;;4.32;3.30;;;26.30;73.00;;;;;;5027616;28;20029;-58
2022/08/18 08:04:08;;;;;;;7.15;3.53;;;26.30;73.00;;;;;;5033407;28;20079;-61
2022/08/18 08:06:43;;;;;;;4.15;3.25;;;26.30;73.10;;;;;;5020831;28;20045;-63
2022/08/18 08:09:42;;;;;;;3.65;3.00;;;26.30;73.10;;;;;;5033590;28;20408;-61
2022/08/18 08:12:17;;;;;;;3.90;3.08;;;26.30;73.00;;;;;;4995107;28;20049;-62
2022/08/18 08:14:46;;;;;;;3.55;2.95;;;26.30;73.10;;;;;;5019360;28;20144;-63
2022/08/18 08:17:24;;;;;;;3.70;3.40;;;26.20;73.00;;;;;;5025935;28;20040;-64
2022/08/18 08:20:07;;;;;;;3.92;3.13;;;26.20;73.00;;;;;;5024651;28;20033;-62
2022/08/18 08:22:45;;;;;;;4.20;3.45;;;26.20;73.00;;;;;;5026985;28;20500;-62
2022/08/18 08:25:20;;;;;;;4.43;3.40;;;26.20;72.90;;;;;;5031881;28;20048;-64
2022/08/18 08:28:20;;;;;;;3.40;3.05;;;26.10;72.90;;;;;;5036262;28;20456;-64
2022/08/18 08:30:53;;;;;;;3.40;3.10;;;26.20;72.90;;;;;;5033245;28;20531;-65
2022/08/18 08:33:34;;;;;;;4.03;3.25;;;26.10;72.80;;;;;;5032391;28;20037;-61
2022/08/18 08:36:27;;;;;;;5.88;3.22;;;26.10;72.80;;;;;;5035151;28;20061;-59
2022/08/18 08:38:58;;;;;;;4.70;3.03;;;26.10;72.90;;;;;;5032533;28;20029;-60
2022/08/18 08:41:51;;;;;;;3.42;2.90;;;26.10;72.90;;;;;;5039008;28;20033;-61
2022/08/18 08:44:34;;;;;;;4.40;3.53;;;26.10;72.80;;;;;;5025785;28;20072;-60
2022/08/18 08:47:29;;;;;;;3.15;2.85;;;26.10;72.80;;;;;;5023352;28;20026;-60
2022/08/18 08:50:05;;;;;;;4.72;3.05;;;26.00;72.70;;;;;;5029969;28;20094;-62
2022/08/18 08:52:50;;;;;;;3.60;3.05;;;26.00;72.70;;;;;;5033932;28;20374;-63
2022/08/18 08:55:24;;;;;;;3.28;2.80;;;26.00;72.80;;;;;;5032171;28;20121;-63
2022/08/18 08:58:14;;;;;;;3.35;3.05;;;26.00;72.80;;;;;;5024843;28;20455;-63
2022/08/18 09:00:41;;;;;;;3.13;2.83;;;26.00;73.70;;;;;;5023454;28;20084;-62
2022/08/18 09:03:20;;;;;;;3.97;3.25;;;26.00;72.90;;;;;;5026913;28;20025;-64
2022/08/18 09:06:06;;;;;;;5.47;3.65;;;26.00;72.90;;;;;;5026447;28;20021;-64
2022/08/18 09:08:56;;;;;;;3.67;3.30;;;26.00;72.90;;;;;;5031721;28;20118;-62
2022/08/18 09:11:40;;;;;;;2.88;2.67;;;26.00;72.80;;;;;;5024531;28;20040;-61
2022/08/18 09:14:23;;;;;;;4.03;3.30;;;26.00;72.90;;;;;;5027696;28;20044;-64
2022/08/18 09:17:10;;;;;;;3.95;3.45;;;26.00;72.80;;;;;;5027204;28;20041;-63
2022/08/18 09:20:06;;;;;;;4.35;3.00;;;26.00;72.90;;;;;;5030507;28;20072;-66
2022/08/18 09:22:35;;;;;;;4.28;3.25;;;26.00;73.00;;;;;;5026541;28;20060;-63
2022/08/18 09:25:01;;;;;;;2.92;2.65;;;25.90;72.90;;;;;;5033059;28;20123;-66
2022/08/18 09:27:42;;;;;;;4.43;3.17;;;26.00;73.00;;;;;;5031735;28;20029;-62
2022/08/18 09:30:45;;;;;;;3.92;3.50;;;26.00;72.90;;;;;;5028592;28;20093;-62
2022/08/18 09:33:33;;;;;;;3.15;2.72;;;26.00;72.80;;;;;;5024859;28;20102;-61
2022/08/18 09:36:36;;;;;;;2.72;2.53;;;26.00;73.00;;;;;;5031684;28;20060;-61
2022/08/18 09:41:55;;;;;;;5.13;2.58;;;26.00;73.10;;;;;;5025190;28;20115;-60
2022/08/18 09:44:40;;;;;;;2.70;2.50;;;26.00;72.90;;;;;;5022427;28;20609;-62
2022/08/18 09:47:07;;;;;;;3.70;2.60;;;26.10;73.20;;;;;;5030248;28;20025;-62
2022/08/18 09:49:41;;;;;;;2.70;2.50;;;26.10;73.20;;;;;;5031262;28;20063;-63
2022/08/18 09:52:25;;;;;;;3.47;2.70;;;26.10;73.30;;;;;;5025743;28;20083;-63
2022/08/18 09:54:57;;;;;;;3.03;2.72;;;26.10;73.40;;;;;;5012391;28;20029;-61
2022/08/18 09:57:37;;;;;;;2.80;2.50;;;26.10;73.10;;;;;;5024916;28;20124;-61
2022/08/18 10:00:03;;;;;;;1.90;1.80;;;26.20;73.10;;;;;;5023685;28;20044;-67
2022/08/18 10:02:30;;;;;;;2.60;2.40;;;26.20;73.30;;;;;;5026951;28;20663;-61
2022/08/18 10:05:14;;;;;;;2.65;2.25;;;26.20;73.20;;;;;;5027878;28;20068;-61
2022/08/18 10:07:53;;;;;;;2.58;2.10;;;26.30;73.10;;;;;;5015913;28;20051;-61
2022/08/18 10:10:50;;;;;;;2.17;2.03;;;26.30;73.00;;;;;;5027538;28;20771;-61
2022/08/18 10:13:22;;;;;;;3.53;2.30;;;26.30;72.60;;;;;;5035791;28;20029;-61
2022/08/18 10:16:12;;;;;;;2.67;2.00;;;26.30;72.50;;;;;;5032608;28;20044;-61
2022/08/18 10:18:45;;;;;;;2.25;2.05;;;26.40;72.60;;;;;;5018245;28;20032;-61
2022/08/18 10:21:27;;;;;;;2.30;2.10;;;26.40;72.30;;;;;;5023783;28;20676;-61
2022/08/18 10:24:04;;;;;;;2.53;2.10;;;26.40;72.20;;;;;;5020256;28;20026;-61
2022/08/18 10:26:29;;;;;;;2.50;2.17;;;26.40;71.90;;;;;;5024529;28;20033;-61
2022/08/18 10:28:59;;;;;;;2.35;2.15;;;26.40;71.80;;;;;;5024507;28;20369;-61
2022/08/18 10:31:26;;;;;;;2.20;2.00;;;26.40;71.70;;;;;;5025880;28;20029;-60
2022/08/18 10:34:03;;;;;;;3.50;2.80;;;26.40;71.70;;;;;;5023693;28;20448;-64
2022/08/18 10:36:52;;;;;;;2.30;2.10;;;26.50;71.50;;;;;;5015188;28;20032;-63
2022/08/18 10:39:43;;;;;;;2.40;2.20;;;26.50;71.30;;;;;;5018457;28;20037;-63
2022/08/18 10:42:32;;;;;;;2.40;2.20;;;26.50;71.20;;;;;;4998258;28;20053;-62
2022/08/18 10:45:25;;;;;;;2.30;2.10;;;26.50;71.10;;;;;;5028908;28;20033;-62
2022/08/18 10:48:16;;;;;;;2.17;2.00;;;26.50;71.00;;;;;;5008307;28;20079;-63
2022/08/18 10:51:06;;;;;;;2.20;2.05;;;26.50;71.00;;;;;;5017358;28;20361;-63
2022/08/18 10:54:06;;;;;;;2.38;1.98;;;26.50;71.10;;;;;;5028297;28;20032;-62
2022/08/18 10:56:49;;;;;;;2.10;2.00;;;26.60;70.80;;;;;;5028026;28;20036;-61
2022/08/18 10:59:42;;;;;;;2.00;1.90;;;26.60;70.90;;;;;;5032439;28;20037;-61
2022/08/18 11:02:38;;;;;;;2.72;2.17;;;26.60;71.40;;;;;;5026568;28;20047;-66
2022/08/18 11:05:08;;;;;;;1.70;1.60;;;26.60;70.60;;;;;;5034510;28;20093;-63
2022/08/18 11:07:34;;;;;;;1.80;1.70;;;26.60;70.70;;;;;;5031380;28;20039;-60
2022/08/18 11:10:13;;;;;;;2.00;1.80;;;26.60;70.90;;;;;;5023917;28;20036;-64
2022/08/18 11:12:51;;;;;;;2.67;2.03;;;26.60;70.80;;;;;;5022719;28;20041;-65
2022/08/18 11:15:35;;;;;;;2.95;2.15;;;26.60;70.80;;;;;;5026849;28;20039;-62
2022/08/18 11:18:27;;;;;;;2.58;2.20;;;26.70;70.80;;;;;;5028630;28;20107;-61
2022/08/18 11:21:14;;;;;;;1.85;1.75;;;26.60;70.60;;;;;;5028436;28;20040;-62
2022/08/18 11:23:40;;;;;;;1.77;1.67;;;26.70;70.80;;;;;;5018255;28;20064;-61
2022/08/18 11:26:16;;;;;;;1.60;1.50;;;26.70;70.70;;;;;;5031478;28;20025;-64
2022/08/18 11:28:42;;;;;;;1.75;1.65;;;26.70;70.60;;;;;;5033275;28;20150;-62
2022/08/18 11:31:08;;;;;;;2.05;1.73;;;26.70;70.60;;;;;;5025140;28;20511;-63
2022/08/18 11:33:38;;;;;;;1.80;1.65;;;26.70;70.70;;;;;;5030876;28;20056;-64
2022/08/18 11:36:05;;;;;;;2.95;1.85;;;26.70;70.60;;;;;;5026914;28;20025;-63
2022/08/18 11:38:32;;;;;;;2.67;2.00;;;26.70;70.50;;;;;;5023535;28;20036;-61
2022/08/18 11:41:15;;;;;;;2.03;1.92;;;26.70;71.10;;;;;;5028654;28;20788;-63
2022/08/18 11:43:41;;;;;;;1.98;1.85;;;26.70;70.20;;;;;;5000076;28;20028;-62
2022/08/18 11:46:21;;;;;;;2.38;2.17;;;26.70;70.30;;;;;;5026239;28;20377;-60
2022/08/18 11:48:49;;;;;;;1.80;1.67;;;26.70;70.10;;;;;;5027120;28;20031;-61
2022/08/18 11:51:16;;;;;;;2.00;1.80;;;26.70;70.10;;;;;;5027870;28;20033;-64
2022/08/18 11:53:47;;;;;;;2.15;1.95;;;26.70;70.20;;;;;;5032193;28;20021;-61
2022/08/18 11:56:19;;;;;;;2.05;1.85;;;26.80;70.20;;;;;;5032713;28;20485;-60
2022/08/18 11:58:49;;;;;;;2.08;1.88;;;26.70;70.20;;;;;;5032088;28;20028;-63
2022/08/18 12:01:31;;;;;;;2.83;1.83;;;26.80;70.20;;;;;;5020574;28;20033;-62
2022/08/18 12:04:20;;;;;;;1.75;1.30;;;26.70;70.10;;;;;;5025153;28;20021;-62
2022/08/18 12:07:01;;;;;;;1.90;1.80;;;26.80;70.00;;;;;;5019427;28;20033;-61
2022/08/18 12:09:37;;;;;;;1.42;1.33;;;26.80;70.00;;;;;;5030599;28;20033;-62
2022/08/18 12:12:23;;;;;;;1.73;1.63;;;26.70;69.70;;;;;;5033276;28;20155;-61
2022/08/18 12:14:59;;;;;;;1.63;1.52;;;26.80;69.60;;;;;;5029235;28;20025;-59
2022/08/18 12:17:26;;;;;;;2.00;1.70;;;26.80;69.60;;;;;;5024842;28;20037;-63
2022/08/18 12:19:52;;;;;;;1.80;1.70;;;26.70;69.60;;;;;;5026825;28;20068;-62
2022/08/18 12:22:22;;;;;;;2.25;1.98;;;26.80;69.80;;;;;;5026687;28;20021;-62
2022/08/18 12:24:49;;;;;;;;;;;26.80;69.80;;;;;;5026706;28;20038;-64
2022/08/18 12:27:18;;;;;;;2.30;2.10;;;26.70;69.70;;;;;;5026540;28;19924;-61
2022/08/18 12:29:43;;;;;;;2.40;2.17;;;26.70;70.00;;;;;;5021219;28;21045;-64
2022/08/18 12:32:10;;;;;;;1.85;1.75;;;26.80;70.20;;;;;;5022256;28;20029;-66
2022/08/18 12:34:36;;;;;;;2.33;1.90;;;26.80;70.20;;;;;;5030665;28;20091;-62
2022/08/18 12:37:02;;;;;;;4.07;1.85;;;26.80;70.30;;;;;;5015628;28;20945;-60
2022/08/18 12:39:29;;;;;;;2.25;2.05;;;26.80;70.40;;;;;;5025636;28;20041;-64
2022/08/18 12:41:56;;;;;;;1.90;1.80;;;26.80;70.40;;;;;;5027155;28;20033;-60
2022/08/18 12:44:21;;;;;;;3.40;2.20;;;26.80;70.40;;;;;;5029395;28;20033;-63
2022/08/18 12:46:48;;;;;;;3.25;2.35;;;26.80;70.40;;;;;;5025539;28;20135;-63
2022/08/18 12:49:18;;;;;;;3.70;2.22;;;26.80;70.40;;;;;;5025352;28;20600;-62
2022/08/18 12:51:44;;;;;;;2.80;2.55;;;26.90;70.50;;;;;;5024648;28;20040;-63
2022/08/18 12:54:10;;;;;;;2.67;2.20;;;26.90;70.30;;;;;;5024804;28;20037;-62
2022/08/18 12:56:36;;;;;;;3.08;2.67;;;26.90;70.30;;;;;;5028764;28;20207;-62
2022/08/18 12:59:05;;;;;;;2.40;2.20;;;26.90;70.30;;;;;;5029805;28;20033;-60
2022/08/18 13:01:35;;;;;;;2.30;2.10;;;26.90;70.20;;;;;;5026795;28;20033;-59
2022/08/18 13:04:02;;;;;;;2.50;2.30;;;27.00;70.50;;;;;;5028928;28;20030;-60
2022/08/18 13:06:28;;;;;;;2.80;2.33;;;27.00;70.30;;;;;;5022334;28;20511;-60
2022/08/18 13:08:57;;;;;;;2.85;2.45;;;27.00;70.20;;;;;;5024882;28;20052;-60
2022/08/18 13:11:23;;;;;;;3.40;2.58;;;27.00;70.10;;;;;;5030511;28;20503;-60
2022/08/18 13:13:50;;;;;;;2.08;1.98;;;27.10;69.90;;;;;;5030041;28;20636;-60
2022/08/18 13:16:17;;;;;;;2.03;1.83;;;27.10;69.90;;;;;;5033980;28;20044;-61
2022/08/18 13:18:43;;;;;;;2.40;2.20;;;27.00;69.70;;;;;;5039292;28;20059;-60
2022/08/18 13:21:12;;;;;;;2.38;2.00;;;27.10;69.60;;;;;;5031702;28;20083;-60
2022/08/18 13:23:38;;;;;;;2.33;2.13;;;27.10;69.20;;;;;;5027969;28;20029;-60
2022/08/18 13:26:07;;;;;;;2.10;1.92;;;27.10;69.20;;;;;;5035216;28;20480;-60
2022/08/18 13:28:33;;;;;;;2.90;2.22;;;27.10;68.80;;;;;;5036363;28;20079;-60
2022/08/18 13:30:59;;;;;;;2.33;2.13;;;27.10;68.90;;;;;;5033464;28;20124;-60
2022/08/18 13:33:24;;;;;;;3.45;2.60;;;27.10;69.10;;;;;;5034673;28;20052;-60